sensor_id;sensor_type;location;lat;lon;timestamp;temperature;humidity
44435;DHT22;30138;20.964;105.830;2022-08-03T00:01:31;31.60;99.90
44435;DHT22;30138;20.964;105.830;2022-08-03T00:06:39;31.60;99.90
44435;DHT22;30138;20.964;105.830;2022-08-03T00:11:47;31.50;99.90
44435;DHT22;30138;20.964;105.830;2022-08-03T00:16:57;31.60;99.90
44435;DHT22;30138;20.964;105.830;2022-08-03T00:22:06;31.60;99.90
44435;DHT22;30138;20.964;105.830;2022-08-03T00:27:15;31.60;99.90
44435;DHT22;30138;20.964;105.830;2022-08-03T00:32:24;31.60;99.90
44435;DHT22;30138;20.964;105.830;2022-08-03T00:37:32;31.60;99.90
44435;DHT22;30138;20.964;105.830;2022-08-03T00:42:50;31.60;99.90
44435;DHT22;30138;20.964;105.830;2022-08-03T00:48:02;31.60;99.90
44435;DHT22;30138;20.964;105.830;2022-08-03T00:53:11;31.60;99.90
44435;DHT22;30138;20.964;105.830;2022-08-03T00:58:19;31.60;99.90
44435;DHT22;30138;20.964;105.830;2022-08-03T01:03:29;31.60;99.90
44435;DHT22;30138;20.964;105.830;2022-08-03T01:08:41;31.70;99.90
44435;DHT22;30138;20.964;105.830;2022-08-03T01:13:59;31.60;99.90
44435;DHT22;30138;20.964;105.830;2022-08-03T01:19:25;31.60;99.90
44435;DHT22;30138;20.964;105.830;2022-08-03T01:24:49;31.60;99.90
44435;DHT22;30138;20.964;105.830;2022-08-03T01:30:09;31.60;99.90
44435;DHT22;30138;20.964;105.830;2022-08-03T01:35:25;31.70;99.90
44435;DHT22;30138;20.964;105.830;2022-08-03T01:40:34;31.70;99.90
44435;DHT22;30138;20.964;105.830;2022-08-03T01:45:45;31.70;99.90
44435;DHT22;30138;20.964;105.830;2022-08-03T01:50:55;31.70;99.90
44435;DHT22;30138;20.964;105.830;2022-08-03T01:56:04;31.70;99.90
44435;DHT22;30138;20.964;105.830;2022-08-03T02:01:16;31.80;99.90
44435;DHT22;30138;20.964;105.830;2022-08-03T02:06:25;31.80;99.90
44435;DHT22;30138;20.964;105.830;2022-08-03T02:11:35;31.80;99.90
44435;DHT22;30138;20.964;105.830;2022-08-03T02:16:45;31.80;99.90
44435;DHT22;30138;20.964;105.830;2022-08-03T02:21:54;31.80;99.90
44435;DHT22;30138;20.964;105.830;2022-08-03T02:27:02;31.80;99.90
44435;DHT22;30138;20.964;105.830;2022-08-03T02:32:18;31.80;99.90
44435;DHT22;30138;20.964;105.830;2022-08-03T02:37:33;31.80;99.90
44435;DHT22;30138;20.964;105.830;2022-08-03T02:42:46;31.90;99.90
44435;DHT22;30138;20.964;105.830;2022-08-03T02:48:02;31.90;99.90
44435;DHT22;30138;20.964;105.830;2022-08-03T02:53:11;31.90;99.90
44435;DHT22;30138;20.964;105.830;2022-08-03T02:58:21;31.90;99.90
44435;DHT22;30138;20.964;105.830;2022-08-03T03:03:32;31.90;99.90
44435;DHT22;30138;20.964;105.830;2022-08-03T03:08:41;31.90;99.90
44435;DHT22;30138;20.964;105.830;2022-08-03T03:13:49;31.90;99.90
44435;DHT22;30138;20.964;105.830;2022-08-03T03:18:59;32.00;99.90
44435;DHT22;30138;20.964;105.830;2022-08-03T03:24:08;31.90;99.90
44435;DHT22;30138;20.964;105.830;2022-08-03T03:29:16;31.90;99.90
44435;DHT22;30138;20.964;105.830;2022-08-03T03:34:25;32.00;99.90
44435;DHT22;30138;20.964;105.830;2022-08-03T03:39:35;32.00;99.90
44435;DHT22;30138;20.964;105.830;2022-08-03T03:44:43;32.00;99.90
44435;DHT22;30138;20.964;105.830;2022-08-03T03:49:53;32.10;99.90
44435;DHT22;30138;20.964;105.830;2022-08-03T03:55:00;32.10;99.90
44435;DHT22;30138;20.964;105.830;2022-08-03T04:00:09;32.10;99.90
44435;DHT22;30138;20.964;105.830;2022-08-03T04:05:19;32.10;99.90
44435;DHT22;30138;20.964;105.830;2022-08-03T04:10:53;32.10;99.90
44435;DHT22;30138;20.964;105.830;2022-08-03T04:16:09;32.20;99.90
44435;DHT22;30138;20.964;105.830;2022-08-03T04:21:21;32.20;99.90
44435;DHT22;30138;20.964;105.830;2022-08-03T04:26:30;32.20;99.90
44435;DHT22;30138;20.964;105.830;2022-08-03T04:31:40;32.30;99.70
44435;DHT22;30138;20.964;105.830;2022-08-03T04:36:56;32.30;99.50
44435;DHT22;30138;20.964;105.830;2022-08-03T04:42:08;32.30;99.60
44435;DHT22;30138;20.964;105.830;2022-08-03T04:47:17;32.30;99.30
44435;DHT22;30138;20.964;105.830;2022-08-03T04:52:28;32.30;99.30
44435;DHT22;30138;20.964;105.830;2022-08-03T04:57:36;32.30;99.40
44435;DHT22;30138;20.964;105.830;2022-08-03T05:02:44;32.40;99.30
44435;DHT22;30138;20.964;105.830;2022-08-03T05:07:53;32.40;99.20
44435;DHT22;30138;20.964;105.830;2022-08-03T05:13:01;32.40;99.50
44435;DHT22;30138;20.964;105.830;2022-08-03T05:18:08;32.40;99.90
44435;DHT22;30138;20.964;105.830;2022-08-03T05:23:21;32.40;99.80
44435;DHT22;30138;20.964;105.830;2022-08-03T05:28:31;32.40;99.90
44435;DHT22;30138;20.964;105.830;2022-08-03T05:33:38;32.50;99.90
44435;DHT22;30138;20.964;105.830;2022-08-03T05:38:50;32.50;99.90
44435;DHT22;30138;20.964;105.830;2022-08-03T05:43:58;32.50;99.90
44435;DHT22;30138;20.964;105.830;2022-08-03T05:49:05;32.60;99.90
44435;DHT22;30138;20.964;105.830;2022-08-03T05:54:15;32.60;99.90
44435;DHT22;30138;20.964;105.830;2022-08-03T05:59:25;32.60;99.90
44435;DHT22;30138;20.964;105.830;2022-08-03T06:04:32;32.60;99.90
44435;DHT22;30138;20.964;105.830;2022-08-03T06:09:43;32.60;99.90
44435;DHT22;30138;20.964;105.830;2022-08-03T06:14:50;32.60;99.90
44435;DHT22;30138;20.964;105.830;2022-08-03T06:19:58;32.60;99.90
44435;DHT22;30138;20.964;105.830;2022-08-03T06:25:08;32.70;99.90
44435;DHT22;30138;20.964;105.830;2022-08-03T06:30:16;32.70;99.90
44435;DHT22;30138;20.964;105.830;2022-08-03T06:35:24;32.80;99.90
44435;DHT22;30138;20.964;105.830;2022-08-03T06:40:35;32.70;99.90
44435;DHT22;30138;20.964;105.830;2022-08-03T06:45:42;32.80;99.90
44435;DHT22;30138;20.964;105.830;2022-08-03T06:50:49;32.80;99.90
44435;DHT22;30138;20.964;105.830;2022-08-03T06:55:59;32.80;99.90
44435;DHT22;30138;20.964;105.830;2022-08-03T07:01:06;32.90;99.90
44435;DHT22;30138;20.964;105.830;2022-08-03T07:06:15;32.90;99.90
44435;DHT22;30138;20.964;105.830;2022-08-03T07:11:26;32.90;99.90
44435;DHT22;30138;20.964;105.830;2022-08-03T07:16:34;32.80;99.90
44435;DHT22;30138;20.964;105.830;2022-08-03T07:21:41;32.90;99.90
44435;DHT22;30138;20.964;105.830;2022-08-03T07:26:51;32.90;99.90
44435;DHT22;30138;20.964;105.830;2022-08-03T07:31:59;32.90;99.90
44435;DHT22;30138;20.964;105.830;2022-08-03T07:37:07;32.90;99.90
44435;DHT22;30138;20.964;105.830;2022-08-03T07:42:17;33.00;99.80
44435;DHT22;30138;20.964;105.830;2022-08-03T07:47:26;33.00;99.90
44435;DHT22;30138;20.964;105.830;2022-08-03T07:52:35;33.00;99.90
44435;DHT22;30138;20.964;105.830;2022-08-03T07:58:05;33.00;99.90
44435;DHT22;30138;20.964;105.830;2022-08-03T08:03:14;33.10;99.80
44435;DHT22;30138;20.964;105.830;2022-08-03T08:08:24;33.10;99.60
44435;DHT22;30138;20.964;105.830;2022-08-03T08:13:34;33.10;99.90
44435;DHT22;30138;20.964;105.830;2022-08-03T08:18:42;33.10;99.60
44435;DHT22;30138;20.964;105.830;2022-08-03T08:23:50;33.20;99.60
44435;DHT22;30138;20.964;105.830;2022-08-03T08:29:00;33.20;99.80
44435;DHT22;30138;20.964;105.830;2022-08-03T08:34:07;33.20;99.40
44435;DHT22;30138;20.964;105.830;2022-08-03T08:39:15;33.20;99.00
44435;DHT22;30138;20.964;105.830;2022-08-03T08:44:25;33.20;99.80
44435;DHT22;30138;20.964;105.830;2022-08-03T08:49:36;33.20;99.70
44435;DHT22;30138;20.964;105.830;2022-08-03T08:54:45;33.20;99.00
44435;DHT22;30138;20.964;105.830;2022-08-03T08:59:55;33.20;99.00
44435;DHT22;30138;20.964;105.830;2022-08-03T09:05:03;33.20;99.40
44435;DHT22;30138;20.964;105.830;2022-08-03T09:10:12;33.20;99.30
44435;DHT22;30138;20.964;105.830;2022-08-03T09:15:26;33.30;99.00
44435;DHT22;30138;20.964;105.830;2022-08-03T09:20:35;33.30;98.90
44435;DHT22;30138;20.964;105.830;2022-08-03T09:25:42;33.30;98.80
44435;DHT22;30138;20.964;105.830;2022-08-03T09:31:00;33.30;98.80
44435;DHT22;30138;20.964;105.830;2022-08-03T09:36:07;33.30;99.10
44435;DHT22;30138;20.964;105.830;2022-08-03T09:41:19;33.30;99.20
44435;DHT22;30138;20.964;105.830;2022-08-03T09:46:29;33.30;98.60
44435;DHT22;30138;20.964;105.830;2022-08-03T09:51:37;33.30;98.70
44435;DHT22;30138;20.964;105.830;2022-08-03T09:56:45;33.30;98.70
44435;DHT22;30138;20.964;105.830;2022-08-03T10:01:55;33.30;98.60
44435;DHT22;30138;20.964;105.830;2022-08-03T10:07:06;33.30;98.80
44435;DHT22;30138;20.964;105.830;2022-08-03T10:12:14;33.30;98.00
44435;DHT22;30138;20.964;105.830;2022-08-03T10:17:24;33.30;97.80
44435;DHT22;30138;20.964;105.830;2022-08-03T10:22:33;33.30;97.90
44435;DHT22;30138;20.964;105.830;2022-08-03T10:27:44;33.30;98.20
44435;DHT22;30138;20.964;105.830;2022-08-03T10:32:59;33.30;97.70
44435;DHT22;30138;20.964;105.830;2022-08-03T10:43:44;33.30;97.90
44435;DHT22;30138;20.964;105.830;2022-08-03T10:48:57;33.30;97.40
44435;DHT22;30138;20.964;105.830;2022-08-03T10:54:06;33.30;98.00
44435;DHT22;30138;20.964;105.830;2022-08-03T10:59:14;33.30;98.20
44435;DHT22;30138;20.964;105.830;2022-08-03T11:04:24;33.30;98.40
44435;DHT22;30138;20.964;105.830;2022-08-03T11:09:41;33.20;98.50
44435;DHT22;30138;20.964;105.830;2022-08-03T11:14:50;33.20;98.60
44435;DHT22;30138;20.964;105.830;2022-08-03T11:19:59;33.20;98.70
44435;DHT22;30138;20.964;105.830;2022-08-03T11:25:08;33.30;99.10
44435;DHT22;30138;20.964;105.830;2022-08-03T11:30:24;33.20;99.40
44435;DHT22;30138;20.964;105.830;2022-08-03T11:35:34;33.20;98.70
44435;DHT22;30138;20.964;105.830;2022-08-03T11:41:04;33.30;99.10
44435;DHT22;30138;20.964;105.830;2022-08-03T11:46:13;33.20;99.40
44435;DHT22;30138;20.964;105.830;2022-08-03T11:51:28;33.30;99.40
44435;DHT22;30138;20.964;105.830;2022-08-03T11:56:44;33.20;99.40
44435;DHT22;30138;20.964;105.830;2022-08-03T12:02:06;33.30;99.70
44435;DHT22;30138;20.964;105.830;2022-08-03T12:07:16;33.20;99.70
44435;DHT22;30138;20.964;105.830;2022-08-03T12:12:23;33.30;99.70
44435;DHT22;30138;20.964;105.830;2022-08-03T12:17:34;33.20;99.90
44435;DHT22;30138;20.964;105.830;2022-08-03T12:22:43;33.20;99.90
44435;DHT22;30138;20.964;105.830;2022-08-03T12:27:51;33.20;99.90
44435;DHT22;30138;20.964;105.830;2022-08-03T12:33:10;33.20;99.90
44435;DHT22;30138;20.964;105.830;2022-08-03T12:38:24;33.30;99.90
44435;DHT22;30138;20.964;105.830;2022-08-03T12:43:32;33.30;99.90
44435;DHT22;30138;20.964;105.830;2022-08-03T12:49:00;33.20;99.50
44435;DHT22;30138;20.964;105.830;2022-08-03T12:54:21;33.20;99.10
44435;DHT22;30138;20.964;105.830;2022-08-03T12:59:30;33.30;98.90
44435;DHT22;30138;20.964;105.830;2022-08-03T13:04:40;33.20;98.50
44435;DHT22;30138;20.964;105.830;2022-08-03T13:09:51;33.30;98.30
44435;DHT22;30138;20.964;105.830;2022-08-03T13:15:00;33.20;98.20
44435;DHT22;30138;20.964;105.830;2022-08-03T13:20:08;33.20;98.20
44435;DHT22;30138;20.964;105.830;2022-08-03T13:25:18;33.30;98.60
44435;DHT22;30138;20.964;105.830;2022-08-03T13:30:26;33.20;99.00
44435;DHT22;30138;20.964;105.830;2022-08-03T13:35:33;33.20;99.40
44435;DHT22;30138;20.964;105.830;2022-08-03T13:40:44;33.20;99.70
44435;DHT22;30138;20.964;105.830;2022-08-03T13:45:52;33.30;99.90
44435;DHT22;30138;20.964;105.830;2022-08-03T13:50:59;33.20;99.90
44435;DHT22;30138;20.964;105.830;2022-08-03T13:56:09;33.30;99.90
44435;DHT22;30138;20.964;105.830;2022-08-03T14:01:17;33.20;99.90
44435;DHT22;30138;20.964;105.830;2022-08-03T14:06:25;33.20;99.90
44435;DHT22;30138;20.964;105.830;2022-08-03T14:11:35;33.20;99.90
44435;DHT22;30138;20.964;105.830;2022-08-03T14:16:43;33.20;99.90
44435;DHT22;30138;20.964;105.830;2022-08-03T14:21:52;33.20;99.90
44435;DHT22;30138;20.964;105.830;2022-08-03T14:27:02;33.20;99.90
44435;DHT22;30138;20.964;105.830;2022-08-03T14:32:10;33.20;99.90
44435;DHT22;30138;20.964;105.830;2022-08-03T14:37:18;33.20;99.90
44435;DHT22;30138;20.964;105.830;2022-08-03T14:42:28;33.20;99.90
44435;DHT22;30138;20.964;105.830;2022-08-03T14:47:36;33.20;99.90
44435;DHT22;30138;20.964;105.830;2022-08-03T14:52:45;33.10;99.90
44435;DHT22;30138;20.964;105.830;2022-08-03T14:57:54;33.10;99.90
44435;DHT22;30138;20.964;105.830;2022-08-03T15:03:05;33.10;99.90
44435;DHT22;30138;20.964;105.830;2022-08-03T15:08:13;33.10;99.90
44435;DHT22;30138;20.964;105.830;2022-08-03T15:13:22;33.10;99.90
44435;DHT22;30138;20.964;105.830;2022-08-03T15:18:30;33.10;99.90
44435;DHT22;30138;20.964;105.830;2022-08-03T15:23:38;33.10;99.90
44435;DHT22;30138;20.964;105.830;2022-08-03T15:28:48;33.10;99.90
44435;DHT22;30138;20.964;105.830;2022-08-03T15:33:56;33.00;99.90
44435;DHT22;30138;20.964;105.830;2022-08-03T15:39:04;33.00;99.90
44435;DHT22;30138;20.964;105.830;2022-08-03T15:44:18;33.00;99.90
44435;DHT22;30138;20.964;105.830;2022-08-03T15:49:26;33.10;99.90
44435;DHT22;30138;20.964;105.830;2022-08-03T15:54:34;33.00;99.90
44435;DHT22;30138;20.964;105.830;2022-08-03T15:59:43;33.00;99.90
44435;DHT22;30138;20.964;105.830;2022-08-03T16:04:51;33.10;99.90
44435;DHT22;30138;20.964;105.830;2022-08-03T16:10:01;33.00;99.90
44435;DHT22;30138;20.964;105.830;2022-08-03T16:15:12;33.00;99.90
44435;DHT22;30138;20.964;105.830;2022-08-03T16:20:20;33.00;99.90
44435;DHT22;30138;20.964;105.830;2022-08-03T16:25:28;33.00;99.90
44435;DHT22;30138;20.964;105.830;2022-08-03T16:30:38;33.00;99.90
44435;DHT22;30138;20.964;105.830;2022-08-03T16:35:46;33.00;99.90
44435;DHT22;30138;20.964;105.830;2022-08-03T16:40:54;33.00;99.90
44435;DHT22;30138;20.964;105.830;2022-08-03T16:46:04;33.00;99.90
44435;DHT22;30138;20.964;105.830;2022-08-03T16:51:11;33.00;99.90
44435;DHT22;30138;20.964;105.830;2022-08-03T16:56:19;33.00;99.90
44435;DHT22;30138;20.964;105.830;2022-08-03T17:01:28;33.00;99.90
44435;DHT22;30138;20.964;105.830;2022-08-03T17:06:37;33.00;99.90
44435;DHT22;30138;20.964;105.830;2022-08-03T17:11:46;32.90;99.90
44435;DHT22;30138;20.964;105.830;2022-08-03T17:16:58;33.00;99.90
44435;DHT22;30138;20.964;105.830;2022-08-03T17:22:10;33.00;99.90
44435;DHT22;30138;20.964;105.830;2022-08-03T17:27:19;33.00;99.90
44435;DHT22;30138;20.964;105.830;2022-08-03T17:32:32;33.00;99.90
44435;DHT22;30138;20.964;105.830;2022-08-03T17:37:42;32.90;99.90
44435;DHT22;30138;20.964;105.830;2022-08-03T17:42:49;32.90;99.90
44435;DHT22;30138;20.964;105.830;2022-08-03T17:47:59;32.90;99.90
44435;DHT22;30138;20.964;105.830;2022-08-03T17:53:10;32.90;99.90
44435;DHT22;30138;20.964;105.830;2022-08-03T17:58:24;32.90;99.90
44435;DHT22;30138;20.964;105.830;2022-08-03T18:03:49;32.90;99.90
44435;DHT22;30138;20.964;105.830;2022-08-03T18:09:01;32.90;99.90
44435;DHT22;30138;20.964;105.830;2022-08-03T18:14:14;32.90;99.90
44435;DHT22;30138;20.964;105.830;2022-08-03T18:19:27;32.90;99.90
44435;DHT22;30138;20.964;105.830;2022-08-03T18:24:35;32.90;99.90
44435;DHT22;30138;20.964;105.830;2022-08-03T18:29:43;32.90;99.90
44435;DHT22;30138;20.964;105.830;2022-08-03T18:34:56;32.80;99.90
44435;DHT22;30138;20.964;105.830;2022-08-03T18:40:06;32.80;99.90
44435;DHT22;30138;20.964;105.830;2022-08-03T18:45:14;32.80;99.90
44435;DHT22;30138;20.964;105.830;2022-08-03T18:50:33;32.80;99.90
44435;DHT22;30138;20.964;105.830;2022-08-03T18:55:46;32.80;99.90
44435;DHT22;30138;20.964;105.830;2022-08-03T19:01:03;32.80;99.90
44435;DHT22;30138;20.964;105.830;2022-08-03T19:06:23;32.80;99.90
44435;DHT22;30138;20.964;105.830;2022-08-03T19:11:39;32.80;99.90
44435;DHT22;30138;20.964;105.830;2022-08-03T19:16:49;32.80;99.90
44435;DHT22;30138;20.964;105.830;2022-08-03T19:22:04;32.80;99.90
44435;DHT22;30138;20.964;105.830;2022-08-03T19:27:13;32.80;99.90
44435;DHT22;30138;20.964;105.830;2022-08-03T19:32:21;32.80;99.90
44435;DHT22;30138;20.964;105.830;2022-08-03T19:37:33;32.80;99.90
44435;DHT22;30138;20.964;105.830;2022-08-03T19:42:45;32.80;99.90
44435;DHT22;30138;20.964;105.830;2022-08-03T19:48:00;32.80;99.90
44435;DHT22;30138;20.964;105.830;2022-08-03T19:53:13;32.70;99.90
44435;DHT22;30138;20.964;105.830;2022-08-03T19:58:24;32.70;99.90
44435;DHT22;30138;20.964;105.830;2022-08-03T20:03:36;32.70;99.90
44435;DHT22;30138;20.964;105.830;2022-08-03T20:08:45;32.70;99.90
44435;DHT22;30138;20.964;105.830;2022-08-03T20:13:54;32.70;99.90
44435;DHT22;30138;20.964;105.830;2022-08-03T20:19:03;32.70;99.90
44435;DHT22;30138;20.964;105.830;2022-08-03T20:24:15;32.70;99.90
44435;DHT22;30138;20.964;105.830;2022-08-03T20:29:29;32.70;99.90
44435;DHT22;30138;20.964;105.830;2022-08-03T20:34:40;32.70;99.90
44435;DHT22;30138;20.964;105.830;2022-08-03T20:39:50;32.60;99.90
44435;DHT22;30138;20.964;105.830;2022-08-03T20:44:58;32.60;99.90
44435;DHT22;30138;20.964;105.830;2022-08-03T20:50:06;32.60;99.90
44435;DHT22;30138;20.964;105.830;2022-08-03T20:55:16;32.60;99.90
44435;DHT22;30138;20.964;105.830;2022-08-03T21:00:24;32.60;99.90
44435;DHT22;30138;20.964;105.830;2022-08-03T21:05:32;32.60;99.90
44435;DHT22;30138;20.964;105.830;2022-08-03T21:10:43;32.60;99.90
44435;DHT22;30138;20.964;105.830;2022-08-03T21:15:52;32.60;99.90
44435;DHT22;30138;20.964;105.830;2022-08-03T21:21:00;32.60;99.90
44435;DHT22;30138;20.964;105.830;2022-08-03T21:26:11;32.60;99.90
44435;DHT22;30138;20.964;105.830;2022-08-03T21:31:19;32.60;99.90
44435;DHT22;30138;20.964;105.830;2022-08-03T21:36:29;32.60;99.90
44435;DHT22;30138;20.964;105.830;2022-08-03T21:41:40;32.60;99.90
44435;DHT22;30138;20.964;105.830;2022-08-03T21:46:48;32.60;99.90
44435;DHT22;30138;20.964;105.830;2022-08-03T21:51:59;32.60;99.90
44435;DHT22;30138;20.964;105.830;2022-08-03T21:57:16;32.60;99.90
44435;DHT22;30138;20.964;105.830;2022-08-03T22:02:27;32.60;99.90
44435;DHT22;30138;20.964;105.830;2022-08-03T22:07:36;32.60;99.90
44435;DHT22;30138;20.964;105.830;2022-08-03T22:12:45;32.60;99.90
44435;DHT22;30138;20.964;105.830;2022-08-03T22:17:55;32.60;99.90
44435;DHT22;30138;20.964;105.830;2022-08-03T22:23:06;32.60;99.90
44435;DHT22;30138;20.964;105.830;2022-08-03T22:28:17;32.60;99.90
44435;DHT22;30138;20.964;105.830;2022-08-03T22:33:26;32.60;99.90
44435;DHT22;30138;20.964;105.830;2022-08-03T22:38:36;32.60;99.90
44435;DHT22;30138;20.964;105.830;2022-08-03T22:43:45;32.60;99.90
44435;DHT22;30138;20.964;105.830;2022-08-03T22:48:53;32.50;99.90
44435;DHT22;30138;20.964;105.830;2022-08-03T22:54:02;32.50;99.90
44435;DHT22;30138;20.964;105.830;2022-08-03T22:59:11;32.50;99.90
44435;DHT22;30138;20.964;105.830;2022-08-03T23:04:20;32.50;99.90
44435;DHT22;30138;20.964;105.830;2022-08-03T23:09:30;32.50;99.90
44435;DHT22;30138;20.964;105.830;2022-08-03T23:14:40;32.50;99.90
44435;DHT22;30138;20.964;105.830;2022-08-03T23:19:51;32.50;99.90
44435;DHT22;30138;20.964;105.830;2022-08-03T23:24:59;32.50;99.90
44435;DHT22;30138;20.964;105.830;2022-08-03T23:30:10;32.50;99.90
44435;DHT22;30138;20.964;105.830;2022-08-03T23:35:17;32.50;99.90
44435;DHT22;30138;20.964;105.830;2022-08-03T23:40:41;32.50;99.90
44435;DHT22;30138;20.964;105.830;2022-08-03T23:45:51;32.50;99.90
44435;DHT22;30138;20.964;105.830;2022-08-03T23:51:09;32.50;99.90
44435;DHT22;30138;20.964;105.830;2022-08-03T23:56:26;32.50;99.90
